sensor_id;sensor_type;location;lat;lon;timestamp;P1;durP1;ratioP1;P2;durP2;ratioP2
45318;SDS011;31057;48.498;32.260;2022-09-01T00:01:02;11.98;;;7.70;;
45318;SDS011;31057;48.498;32.260;2022-09-01T00:04:08;12.85;;;8.40;;
45318;SDS011;31057;48.498;32.260;2022-09-01T00:07:13;9.85;;;8.25;;
45318;SDS011;31057;48.498;32.260;2022-09-01T00:10:15;11.95;;;8.77;;
45318;SDS011;31057;48.498;32.260;2022-09-01T00:13:17;9.48;;;8.05;;
45318;SDS011;31057;48.498;32.260;2022-09-01T00:16:19;11.05;;;7.80;;
45318;SDS011;31057;48.498;32.260;2022-09-01T00:19:22;14.10;;;8.37;;
45318;SDS011;31057;48.498;32.260;2022-09-01T00:22:24;14.57;;;9.03;;
45318;SDS011;31057;48.498;32.260;2022-09-01T00:25:27;16.50;;;9.82;;
45318;SDS011;31057;48.498;32.260;2022-09-01T00:28:33;11.25;;;8.70;;
45318;SDS011;31057;48.498;32.260;2022-09-01T00:31:38;10.75;;;9.00;;
45318;SDS011;31057;48.498;32.260;2022-09-01T00:34:40;13.37;;;9.23;;
45318;SDS011;31057;48.498;32.260;2022-09-01T00:37:42;13.68;;;9.23;;
45318;SDS011;31057;48.498;32.260;2022-09-01T00:40:44;11.67;;;8.47;;
45318;SDS011;31057;48.498;32.260;2022-09-01T00:43:48;11.20;;;8.73;;
45318;SDS011;31057;48.498;32.260;2022-09-01T00:46:55;12.85;;;9.57;;
45318;SDS011;31057;48.498;32.260;2022-09-01T00:49:57;15.45;;;9.43;;
45318;SDS011;31057;48.498;32.260;2022-09-01T00:52:59;12.95;;;9.15;;
45318;SDS011;31057;48.498;32.260;2022-09-01T00:56:02;9.80;;;8.75;;
45318;SDS011;31057;48.498;32.260;2022-09-01T00:59:05;11.07;;;9.40;;
45318;SDS011;31057;48.498;32.260;2022-09-01T01:02:09;13.35;;;9.13;;
45318;SDS011;31057;48.498;32.260;2022-09-01T01:05:11;12.40;;;9.07;;
45318;SDS011;31057;48.498;32.260;2022-09-01T01:08:15;11.10;;;9.75;;
45318;SDS011;31057;48.498;32.260;2022-09-01T01:11:20;13.35;;;9.43;;
45318;SDS011;31057;48.498;32.260;2022-09-01T01:14:22;14.00;;;10.68;;
45318;SDS011;31057;48.498;32.260;2022-09-01T01:17:24;15.55;;;9.93;;
45318;SDS011;31057;48.498;32.260;2022-09-01T01:20:26;10.23;;;8.93;;
45318;SDS011;31057;48.498;32.260;2022-09-01T01:23:54;16.48;;;10.65;;
45318;SDS011;31057;48.498;32.260;2022-09-01T01:27:02;11.98;;;9.82;;
45318;SDS011;31057;48.498;32.260;2022-09-01T01:30:05;14.20;;;10.80;;
45318;SDS011;31057;48.498;32.260;2022-09-01T01:33:10;21.58;;;11.30;;
45318;SDS011;31057;48.498;32.260;2022-09-01T01:36:14;14.50;;;10.60;;
45318;SDS011;31057;48.498;32.260;2022-09-01T01:39:22;14.57;;;10.27;;
45318;SDS011;31057;48.498;32.260;2022-09-01T01:42:25;14.63;;;10.30;;
45318;SDS011;31057;48.498;32.260;2022-09-01T01:45:30;14.68;;;9.93;;
45318;SDS011;31057;48.498;32.260;2022-09-01T01:48:32;14.23;;;10.95;;
45318;SDS011;31057;48.498;32.260;2022-09-01T01:51:37;14.45;;;10.57;;
45318;SDS011;31057;48.498;32.260;2022-09-01T01:54:39;14.52;;;11.13;;
45318;SDS011;31057;48.498;32.260;2022-09-01T01:57:41;14.57;;;10.60;;
45318;SDS011;31057;48.498;32.260;2022-09-01T02:00:49;13.00;;;10.77;;
45318;SDS011;31057;48.498;32.260;2022-09-01T02:03:53;13.75;;;11.13;;
45318;SDS011;31057;48.498;32.260;2022-09-01T02:06:56;14.90;;;11.00;;
45318;SDS011;31057;48.498;32.260;2022-09-01T02:09:58;12.90;;;10.98;;
45318;SDS011;31057;48.498;32.260;2022-09-01T02:16:07;16.00;;;11.35;;
45318;SDS011;31057;48.498;32.260;2022-09-01T02:19:13;14.93;;;11.27;;
45318;SDS011;31057;48.498;32.260;2022-09-01T02:22:15;14.70;;;11.87;;
45318;SDS011;31057;48.498;32.260;2022-09-01T02:25:20;16.02;;;11.80;;
45318;SDS011;31057;48.498;32.260;2022-09-01T02:28:23;15.48;;;12.38;;
45318;SDS011;31057;48.498;32.260;2022-09-01T02:31:32;15.48;;;11.73;;
45318;SDS011;31057;48.498;32.260;2022-09-01T02:34:42;16.48;;;12.50;;
45318;SDS011;31057;48.498;32.260;2022-09-01T02:37:43;17.42;;;12.48;;
45318;SDS011;31057;48.498;32.260;2022-09-01T02:40:46;16.45;;;12.48;;
45318;SDS011;31057;48.498;32.260;2022-09-01T02:43:49;16.00;;;12.82;;
45318;SDS011;31057;48.498;32.260;2022-09-01T02:46:51;14.35;;;12.82;;
45318;SDS011;31057;48.498;32.260;2022-09-01T02:49:53;14.80;;;12.50;;
45318;SDS011;31057;48.498;32.260;2022-09-01T02:52:55;15.05;;;13.10;;
45318;SDS011;31057;48.498;32.260;2022-09-01T02:56:04;16.20;;;12.82;;
45318;SDS011;31057;48.498;32.260;2022-09-01T02:59:14;16.20;;;13.32;;
45318;SDS011;31057;48.498;32.260;2022-09-01T03:02:17;16.67;;;13.52;;
45318;SDS011;31057;48.498;32.260;2022-09-01T03:05:19;15.73;;;13.93;;
45318;SDS011;31057;48.498;32.260;2022-09-01T03:08:27;17.75;;;13.45;;
45318;SDS011;31057;48.498;32.260;2022-09-01T03:11:32;18.58;;;13.15;;
45318;SDS011;31057;48.498;32.260;2022-09-01T03:14:36;16.85;;;12.65;;
45318;SDS011;31057;48.498;32.260;2022-09-01T03:17:38;17.75;;;13.60;;
45318;SDS011;31057;48.498;32.260;2022-09-01T03:20:42;18.48;;;14.05;;
45318;SDS011;31057;48.498;32.260;2022-09-01T03:23:46;17.55;;;14.07;;
45318;SDS011;31057;48.498;32.260;2022-09-01T03:29:51;16.08;;;13.68;;
45318;SDS011;31057;48.498;32.260;2022-09-01T03:32:54;16.50;;;13.52;;
45318;SDS011;31057;48.498;32.260;2022-09-01T03:35:59;22.63;;;15.45;;
45318;SDS011;31057;48.498;32.260;2022-09-01T03:39:02;18.13;;;13.90;;
45318;SDS011;31057;48.498;32.260;2022-09-01T03:42:04;18.98;;;15.80;;
45318;SDS011;31057;48.498;32.260;2022-09-01T03:45:09;16.63;;;14.82;;
45318;SDS011;31057;48.498;32.260;2022-09-01T03:48:16;16.38;;;13.95;;
45318;SDS011;31057;48.498;32.260;2022-09-01T03:51:19;19.75;;;13.88;;
45318;SDS011;31057;48.498;32.260;2022-09-01T03:54:23;20.15;;;14.73;;
45318;SDS011;31057;48.498;32.260;2022-09-01T03:57:28;17.30;;;14.85;;
45318;SDS011;31057;48.498;32.260;2022-09-01T04:00:38;17.00;;;14.25;;
45318;SDS011;31057;48.498;32.260;2022-09-01T04:03:49;16.13;;;13.57;;
45318;SDS011;31057;48.498;32.260;2022-09-01T04:06:52;18.45;;;14.55;;
45318;SDS011;31057;48.498;32.260;2022-09-01T04:09:54;16.48;;;14.65;;
45318;SDS011;31057;48.498;32.260;2022-09-01T04:12:57;16.48;;;13.45;;
45318;SDS011;31057;48.498;32.260;2022-09-01T04:16:02;22.58;;;13.95;;
45318;SDS011;31057;48.498;32.260;2022-09-01T04:19:35;16.27;;;12.52;;
45318;SDS011;31057;48.498;32.260;2022-09-01T04:22:39;16.27;;;12.68;;
45318;SDS011;31057;48.498;32.260;2022-09-01T04:25:42;15.00;;;11.05;;
45318;SDS011;31057;48.498;32.260;2022-09-01T04:28:45;13.10;;;11.70;;
45318;SDS011;31057;48.498;32.260;2022-09-01T04:31:49;12.57;;;10.93;;
45318;SDS011;31057;48.498;32.260;2022-09-01T04:34:53;12.40;;;10.00;;
45318;SDS011;31057;48.498;32.260;2022-09-01T04:38:00;14.95;;;11.23;;
45318;SDS011;31057;48.498;32.260;2022-09-01T04:41:03;13.40;;;11.30;;
45318;SDS011;31057;48.498;32.260;2022-09-01T04:44:06;15.02;;;10.98;;
45318;SDS011;31057;48.498;32.260;2022-09-01T04:47:08;15.27;;;10.75;;
45318;SDS011;31057;48.498;32.260;2022-09-01T04:50:11;16.92;;;10.90;;
45318;SDS011;31057;48.498;32.260;2022-09-01T04:53:18;12.55;;;10.30;;
45318;SDS011;31057;48.498;32.260;2022-09-01T04:56:20;12.82;;;10.77;;
45318;SDS011;31057;48.498;32.260;2022-09-01T04:59:23;12.85;;;9.52;;
45318;SDS011;31057;48.498;32.260;2022-09-01T05:02:27;12.23;;;10.80;;
45318;SDS011;31057;48.498;32.260;2022-09-01T05:05:35;13.70;;;9.52;;
45318;SDS011;31057;48.498;32.260;2022-09-01T05:08:43;14.50;;;9.90;;
45318;SDS011;31057;48.498;32.260;2022-09-01T05:11:48;12.25;;;8.95;;
45318;SDS011;31057;48.498;32.260;2022-09-01T05:14:50;11.90;;;9.68;;
45318;SDS011;31057;48.498;32.260;2022-09-01T05:17:52;15.75;;;11.00;;
45318;SDS011;31057;48.498;32.260;2022-09-01T05:21:03;15.63;;;11.77;;
45318;SDS011;31057;48.498;32.260;2022-09-01T05:24:14;12.82;;;10.68;;
45318;SDS011;31057;48.498;32.260;2022-09-01T05:27:19;17.48;;;12.98;;
45318;SDS011;31057;48.498;32.260;2022-09-01T05:30:23;22.15;;;11.90;;
45318;SDS011;31057;48.498;32.260;2022-09-01T05:33:28;15.32;;;11.00;;
45318;SDS011;31057;48.498;32.260;2022-09-01T05:36:30;14.07;;;9.43;;
45318;SDS011;31057;48.498;32.260;2022-09-01T05:39:35;11.75;;;9.57;;
45318;SDS011;31057;48.498;32.260;2022-09-01T05:42:38;12.25;;;8.63;;
45318;SDS011;31057;48.498;32.260;2022-09-01T05:45:41;11.23;;;8.35;;
45318;SDS011;31057;48.498;32.260;2022-09-01T05:49:04;10.60;;;8.43;;
45318;SDS011;31057;48.498;32.260;2022-09-01T05:52:09;9.00;;;5.57;;
45318;SDS011;31057;48.498;32.260;2022-09-01T05:55:11;9.63;;;5.40;;
45318;SDS011;31057;48.498;32.260;2022-09-01T05:58:16;6.80;;;5.30;;
45318;SDS011;31057;48.498;32.260;2022-09-01T06:01:18;9.35;;;6.72;;
45318;SDS011;31057;48.498;32.260;2022-09-01T06:04:22;14.07;;;6.05;;
45318;SDS011;31057;48.498;32.260;2022-09-01T06:07:30;5.68;;;4.03;;
45318;SDS011;31057;48.498;32.260;2022-09-01T06:10:32;7.05;;;4.45;;
45318;SDS011;31057;48.498;32.260;2022-09-01T06:13:37;6.05;;;4.00;;
45318;SDS011;31057;48.498;32.260;2022-09-01T06:16:42;4.80;;;3.80;;
45318;SDS011;31057;48.498;32.260;2022-09-01T06:19:44;4.32;;;3.40;;
45318;SDS011;31057;48.498;32.260;2022-09-01T06:22:47;6.88;;;4.35;;
45318;SDS011;31057;48.498;32.260;2022-09-01T06:25:49;5.57;;;3.95;;
45318;SDS011;31057;48.498;32.260;2022-09-01T06:28:52;7.80;;;3.97;;
45318;SDS011;31057;48.498;32.260;2022-09-01T06:31:58;7.22;;;3.60;;
45318;SDS011;31057;48.498;32.260;2022-09-01T06:35:02;8.90;;;2.92;;
45318;SDS011;31057;48.498;32.260;2022-09-01T06:38:09;5.65;;;2.95;;
45318;SDS011;31057;48.498;32.260;2022-09-01T06:41:12;5.60;;;2.80;;
45318;SDS011;31057;48.498;32.260;2022-09-01T06:44:14;5.60;;;2.88;;
45318;SDS011;31057;48.498;32.260;2022-09-01T06:47:22;5.50;;;3.33;;
45318;SDS011;31057;48.498;32.260;2022-09-01T06:50:24;4.65;;;2.70;;
45318;SDS011;31057;48.498;32.260;2022-09-01T06:53:48;5.55;;;2.80;;
45318;SDS011;31057;48.498;32.260;2022-09-01T06:56:53;2.88;;;2.50;;
45318;SDS011;31057;48.498;32.260;2022-09-01T06:59:55;3.47;;;2.03;;
45318;SDS011;31057;48.498;32.260;2022-09-01T07:02:57;5.30;;;2.90;;
45318;SDS011;31057;48.498;32.260;2022-09-01T07:06:00;8.00;;;2.27;;
45318;SDS011;31057;48.498;32.260;2022-09-01T07:09:09;5.57;;;2.55;;
45318;SDS011;31057;48.498;32.260;2022-09-01T07:12:20;3.42;;;2.53;;
45318;SDS011;31057;48.498;32.260;2022-09-01T07:15:26;4.50;;;2.50;;
45318;SDS011;31057;48.498;32.260;2022-09-01T07:18:53;11.73;;;2.78;;
45318;SDS011;31057;48.498;32.260;2022-09-01T07:21:59;6.38;;;2.58;;
45318;SDS011;31057;48.498;32.260;2022-09-01T07:25:08;5.88;;;2.47;;
45318;SDS011;31057;48.498;32.260;2022-09-01T07:28:14;4.43;;;2.67;;
45318;SDS011;31057;48.498;32.260;2022-09-01T07:31:25;2.88;;;2.55;;
45318;SDS011;31057;48.498;32.260;2022-09-01T07:34:52;5.95;;;2.60;;
45318;SDS011;31057;48.498;32.260;2022-09-01T07:37:55;3.28;;;2.42;;
45318;SDS011;31057;48.498;32.260;2022-09-01T07:41:17;3.88;;;2.20;;
45318;SDS011;31057;48.498;32.260;2022-09-01T07:44:39;5.00;;;2.30;;
45318;SDS011;31057;48.498;32.260;2022-09-01T07:47:44;5.05;;;3.03;;
45318;SDS011;31057;48.498;32.260;2022-09-01T07:50:54;3.95;;;2.97;;
45318;SDS011;31057;48.498;32.260;2022-09-01T07:54:17;5.70;;;3.10;;
45318;SDS011;31057;48.498;32.260;2022-09-01T07:57:19;4.90;;;3.10;;
45318;SDS011;31057;48.498;32.260;2022-09-01T08:00:23;6.13;;;2.85;;
45318;SDS011;31057;48.498;32.260;2022-09-01T08:03:31;3.30;;;2.30;;
45318;SDS011;31057;48.498;32.260;2022-09-01T08:06:33;9.35;;;2.55;;
45318;SDS011;31057;48.498;32.260;2022-09-01T08:09:39;2.30;;;2.08;;
45318;SDS011;31057;48.498;32.260;2022-09-01T08:12:44;3.97;;;2.40;;
45318;SDS011;31057;48.498;32.260;2022-09-01T08:15:46;5.87;;;2.53;;
45318;SDS011;31057;48.498;32.260;2022-09-01T08:19:08;3.42;;;2.55;;
45318;SDS011;31057;48.498;32.260;2022-09-01T08:22:16;4.53;;;2.35;;
45318;SDS011;31057;48.498;32.260;2022-09-01T08:25:22;4.45;;;2.30;;
45318;SDS011;31057;48.498;32.260;2022-09-01T08:28:25;3.30;;;2.00;;
45318;SDS011;31057;48.498;32.260;2022-09-01T08:31:27;8.33;;;2.33;;
45318;SDS011;31057;48.498;32.260;2022-09-01T08:34:31;2.63;;;1.80;;
45318;SDS011;31057;48.498;32.260;2022-09-01T08:37:34;3.60;;;2.22;;
45318;SDS011;31057;48.498;32.260;2022-09-01T08:40:37;2.92;;;2.10;;
45318;SDS011;31057;48.498;32.260;2022-09-01T08:47:11;4.53;;;2.13;;
45318;SDS011;31057;48.498;32.260;2022-09-01T08:50:16;3.67;;;2.13;;
45318;SDS011;31057;48.498;32.260;2022-09-01T08:53:24;5.20;;;2.60;;
45318;SDS011;31057;48.498;32.260;2022-09-01T08:56:33;2.30;;;1.90;;
45318;SDS011;31057;48.498;32.260;2022-09-01T08:59:37;4.30;;;2.30;;
45318;SDS011;31057;48.498;32.260;2022-09-01T09:09:29;4.70;;;2.35;;
45318;SDS011;31057;48.498;32.260;2022-09-01T09:16:02;3.67;;;2.25;;
45318;SDS011;31057;48.498;32.260;2022-09-01T09:22:39;5.93;;;2.63;;
45318;SDS011;31057;48.498;32.260;2022-09-01T09:25:42;4.88;;;2.33;;
45318;SDS011;31057;48.498;32.260;2022-09-01T09:28:44;3.70;;;2.33;;
45318;SDS011;31057;48.498;32.260;2022-09-01T09:31:48;5.72;;;2.25;;
45318;SDS011;31057;48.498;32.260;2022-09-01T09:35:15;3.03;;;2.20;;
45318;SDS011;31057;48.498;32.260;2022-09-01T09:38:21;3.83;;;2.25;;
45318;SDS011;31057;48.498;32.260;2022-09-01T09:41:33;3.42;;;2.38;;
45318;SDS011;31057;48.498;32.260;2022-09-01T09:44:43;4.55;;;2.30;;
45318;SDS011;31057;48.498;32.260;2022-09-01T09:47:49;4.95;;;2.10;;
45318;SDS011;31057;48.498;32.260;2022-09-01T09:50:52;4.72;;;1.88;;
45318;SDS011;31057;48.498;32.260;2022-09-01T09:54:08;4.40;;;2.05;;
45318;SDS011;31057;48.498;32.260;2022-09-01T09:57:16;3.05;;;2.05;;
45318;SDS011;31057;48.498;32.260;2022-09-01T10:03:37;4.10;;;1.90;;
45318;SDS011;31057;48.498;32.260;2022-09-01T10:06:43;3.05;;;2.25;;
45318;SDS011;31057;48.498;32.260;2022-09-01T10:09:47;4.70;;;1.70;;
45318;SDS011;31057;48.498;32.260;2022-09-01T10:12:53;3.72;;;1.85;;
45318;SDS011;31057;48.498;32.260;2022-09-01T10:15:57;2.95;;;1.98;;
45318;SDS011;31057;48.498;32.260;2022-09-01T10:19:05;3.22;;;2.00;;
45318;SDS011;31057;48.498;32.260;2022-09-01T10:22:13;5.47;;;1.95;;
45318;SDS011;31057;48.498;32.260;2022-09-01T10:25:16;3.08;;;1.67;;
45318;SDS011;31057;48.498;32.260;2022-09-01T10:28:23;3.13;;;1.90;;
45318;SDS011;31057;48.498;32.260;2022-09-01T10:31:27;2.78;;;1.95;;
45318;SDS011;31057;48.498;32.260;2022-09-01T10:34:34;4.13;;;2.53;;
45318;SDS011;31057;48.498;32.260;2022-09-01T10:37:38;4.90;;;2.53;;
45318;SDS011;31057;48.498;32.260;2022-09-01T10:40:42;4.18;;;1.90;;
45318;SDS011;31057;48.498;32.260;2022-09-01T10:43:51;3.65;;;2.40;;
45318;SDS011;31057;48.498;32.260;2022-09-01T10:46:53;2.93;;;2.47;;
45318;SDS011;31057;48.498;32.260;2022-09-01T10:50:21;3.60;;;2.22;;
45318;SDS011;31057;48.498;32.260;2022-09-01T10:56:38;5.28;;;2.10;;
45318;SDS011;31057;48.498;32.260;2022-09-01T10:59:51;3.67;;;2.05;;
45318;SDS011;31057;48.498;32.260;2022-09-01T11:09:44;3.10;;;2.17;;
45318;SDS011;31057;48.498;32.260;2022-09-01T11:16:38;6.57;;;2.70;;
45318;SDS011;31057;48.498;32.260;2022-09-01T11:33:01;3.40;;;1.65;;
45318;SDS011;31057;48.498;32.260;2022-09-01T11:42:27;4.72;;;2.33;;
45318;SDS011;31057;48.498;32.260;2022-09-01T11:45:40;3.28;;;2.10;;
45318;SDS011;31057;48.498;32.260;2022-09-01T11:48:52;4.43;;;2.38;;
45318;SDS011;31057;48.498;32.260;2022-09-01T11:51:56;6.30;;;2.22;;
45318;SDS011;31057;48.498;32.260;2022-09-01T11:55:00;3.35;;;2.10;;
45318;SDS011;31057;48.498;32.260;2022-09-01T11:58:05;3.38;;;2.30;;
45318;SDS011;31057;48.498;32.260;2022-09-01T12:01:19;8.63;;;2.45;;
45318;SDS011;31057;48.498;32.260;2022-09-01T12:04:32;4.68;;;2.22;;
45318;SDS011;31057;48.498;32.260;2022-09-01T12:10:47;8.85;;;2.40;;
45318;SDS011;31057;48.498;32.260;2022-09-01T12:17:11;4.57;;;2.50;;
45318;SDS011;31057;48.498;32.260;2022-09-01T12:23:36;4.95;;;2.60;;
45318;SDS011;31057;48.498;32.260;2022-09-01T12:26:47;3.05;;;2.05;;
45318;SDS011;31057;48.498;32.260;2022-09-01T12:29:51;4.93;;;2.58;;
45318;SDS011;31057;48.498;32.260;2022-09-01T12:32:53;4.30;;;2.90;;
45318;SDS011;31057;48.498;32.260;2022-09-01T12:36:34;6.72;;;2.95;;
45318;SDS011;31057;48.498;32.260;2022-09-01T12:39:46;5.85;;;2.45;;
45318;SDS011;31057;48.498;32.260;2022-09-01T12:42:53;5.20;;;2.35;;
45318;SDS011;31057;48.498;32.260;2022-09-01T12:45:55;3.05;;;2.78;;
45318;SDS011;31057;48.498;32.260;2022-09-01T12:49:19;8.35;;;2.17;;
45318;SDS011;31057;48.498;32.260;2022-09-01T12:52:29;3.22;;;2.22;;
45318;SDS011;31057;48.498;32.260;2022-09-01T12:55:35;3.78;;;2.00;;
45318;SDS011;31057;48.498;32.260;2022-09-01T12:59:03;5.45;;;2.13;;
45318;SDS011;31057;48.498;32.260;2022-09-01T13:02:41;4.05;;;2.58;;
45318;SDS011;31057;48.498;32.260;2022-09-01T13:05:51;5.38;;;2.10;;
45318;SDS011;31057;48.498;32.260;2022-09-01T13:08:55;4.47;;;2.10;;
45318;SDS011;31057;48.498;32.260;2022-09-01T13:12:16;3.20;;;2.00;;
45318;SDS011;31057;48.498;32.260;2022-09-01T13:15:20;6.13;;;2.20;;
45318;SDS011;31057;48.498;32.260;2022-09-01T13:18:23;4.30;;;1.77;;
45318;SDS011;31057;48.498;32.260;2022-09-01T13:21:26;3.20;;;1.98;;
45318;SDS011;31057;48.498;32.260;2022-09-01T13:24:29;3.47;;;2.17;;
45318;SDS011;31057;48.498;32.260;2022-09-01T13:27:32;2.45;;;1.73;;
45318;SDS011;31057;48.498;32.260;2022-09-01T13:30:34;5.97;;;2.08;;
45318;SDS011;31057;48.498;32.260;2022-09-01T13:33:36;3.20;;;2.20;;
45318;SDS011;31057;48.498;32.260;2022-09-01T13:36:58;2.47;;;1.73;;
45318;SDS011;31057;48.498;32.260;2022-09-01T13:40:00;2.90;;;1.63;;
45318;SDS011;31057;48.498;32.260;2022-09-01T13:43:02;7.25;;;1.85;;
45318;SDS011;31057;48.498;32.260;2022-09-01T13:46:06;3.72;;;1.85;;
45318;SDS011;31057;48.498;32.260;2022-09-01T13:49:08;6.25;;;1.70;;
45318;SDS011;31057;48.498;32.260;2022-09-01T13:52:30;4.25;;;1.65;;
45318;SDS011;31057;48.498;32.260;2022-09-01T13:55:34;5.35;;;1.73;;
45318;SDS011;31057;48.498;32.260;2022-09-01T13:58:39;2.72;;;1.83;;
45318;SDS011;31057;48.498;32.260;2022-09-01T14:01:41;2.55;;;1.70;;
45318;SDS011;31057;48.498;32.260;2022-09-01T14:04:43;3.90;;;1.53;;
45318;SDS011;31057;48.498;32.260;2022-09-01T14:07:46;2.75;;;1.67;;
45318;SDS011;31057;48.498;32.260;2022-09-01T14:13:52;4.45;;;1.60;;
45318;SDS011;31057;48.498;32.260;2022-09-01T14:16:54;10.80;;;1.83;;
45318;SDS011;31057;48.498;32.260;2022-09-01T14:19:58;8.20;;;1.45;;
45318;SDS011;31057;48.498;32.260;2022-09-01T14:23:04;5.82;;;1.50;;
45318;SDS011;31057;48.498;32.260;2022-09-01T14:26:07;6.85;;;1.90;;
45318;SDS011;31057;48.498;32.260;2022-09-01T14:29:12;4.30;;;1.90;;
45318;SDS011;31057;48.498;32.260;2022-09-01T14:32:14;3.90;;;1.70;;
45318;SDS011;31057;48.498;32.260;2022-09-01T14:35:18;4.47;;;1.83;;
45318;SDS011;31057;48.498;32.260;2022-09-01T14:38:21;4.35;;;1.70;;
45318;SDS011;31057;48.498;32.260;2022-09-01T14:41:24;6.25;;;1.92;;
45318;SDS011;31057;48.498;32.260;2022-09-01T14:44:27;4.40;;;2.03;;
45318;SDS011;31057;48.498;32.260;2022-09-01T14:47:29;6.95;;;2.45;;
45318;SDS011;31057;48.498;32.260;2022-09-01T14:50:33;4.93;;;2.13;;
45318;SDS011;31057;48.498;32.260;2022-09-01T14:53:40;2.38;;;1.38;;
45318;SDS011;31057;48.498;32.260;2022-09-01T14:56:42;2.70;;;1.52;;
45318;SDS011;31057;48.498;32.260;2022-09-01T15:00:04;7.45;;;2.17;;
45318;SDS011;31057;48.498;32.260;2022-09-01T15:03:10;5.10;;;1.80;;
45318;SDS011;31057;48.498;32.260;2022-09-01T15:06:13;4.10;;;1.25;;
45318;SDS011;31057;48.498;32.260;2022-09-01T15:09:16;2.65;;;1.85;;
45318;SDS011;31057;48.498;32.260;2022-09-01T15:12:19;2.45;;;1.63;;
45318;SDS011;31057;48.498;32.260;2022-09-01T15:18:24;4.95;;;1.63;;
45318;SDS011;31057;48.498;32.260;2022-09-01T15:21:28;5.35;;;1.65;;
45318;SDS011;31057;48.498;32.260;2022-09-01T15:24:32;8.75;;;2.38;;
45318;SDS011;31057;48.498;32.260;2022-09-01T15:27:34;3.00;;;1.45;;
45318;SDS011;31057;48.498;32.260;2022-09-01T15:30:41;6.10;;;1.98;;
45318;SDS011;31057;48.498;32.260;2022-09-01T15:33:46;3.15;;;1.95;;
45318;SDS011;31057;48.498;32.260;2022-09-01T15:36:48;3.33;;;2.00;;
45318;SDS011;31057;48.498;32.260;2022-09-01T15:39:50;5.53;;;1.77;;
45318;SDS011;31057;48.498;32.260;2022-09-01T15:42:53;4.50;;;1.90;;
45318;SDS011;31057;48.498;32.260;2022-09-01T15:45:56;4.55;;;1.42;;
45318;SDS011;31057;48.498;32.260;2022-09-01T15:49:04;2.42;;;1.70;;
45318;SDS011;31057;48.498;32.260;2022-09-01T15:52:08;4.53;;;1.95;;
45318;SDS011;31057;48.498;32.260;2022-09-01T15:55:10;10.48;;;1.83;;
45318;SDS011;31057;48.498;32.260;2022-09-01T15:58:13;2.33;;;1.42;;
45318;SDS011;31057;48.498;32.260;2022-09-01T16:01:17;5.63;;;1.83;;
45318;SDS011;31057;48.498;32.260;2022-09-01T16:07:27;7.70;;;2.08;;
45318;SDS011;31057;48.498;32.260;2022-09-01T16:10:31;5.97;;;1.92;;
45318;SDS011;31057;48.498;32.260;2022-09-01T16:13:38;4.47;;;1.98;;
45318;SDS011;31057;48.498;32.260;2022-09-01T16:20:26;5.07;;;1.88;;
45318;SDS011;31057;48.498;32.260;2022-09-01T16:23:50;5.78;;;1.80;;
45318;SDS011;31057;48.498;32.260;2022-09-01T16:26:52;4.45;;;1.80;;
45318;SDS011;31057;48.498;32.260;2022-09-01T16:29:59;6.22;;;2.13;;
45318;SDS011;31057;48.498;32.260;2022-09-01T16:33:05;10.15;;;2.53;;
45318;SDS011;31057;48.498;32.260;2022-09-01T16:46:12;13.75;;;3.38;;
45318;SDS011;31057;48.498;32.260;2022-09-01T16:49:44;8.48;;;3.08;;
45318;SDS011;31057;48.498;32.260;2022-09-01T16:53:18;6.32;;;2.60;;
45318;SDS011;31057;48.498;32.260;2022-09-01T16:56:47;9.07;;;2.65;;
45318;SDS011;31057;48.498;32.260;2022-09-01T17:00:00;3.10;;;1.85;;
45318;SDS011;31057;48.498;32.260;2022-09-01T17:06:20;4.38;;;2.10;;
45318;SDS011;31057;48.498;32.260;2022-09-01T17:09:34;5.47;;;2.40;;
45318;SDS011;31057;48.498;32.260;2022-09-01T17:12:42;7.00;;;2.13;;
45318;SDS011;31057;48.498;32.260;2022-09-01T17:15:52;6.00;;;2.40;;
45318;SDS011;31057;48.498;32.260;2022-09-01T17:19:04;5.15;;;2.08;;
45318;SDS011;31057;48.498;32.260;2022-09-01T17:22:13;4.15;;;2.20;;
45318;SDS011;31057;48.498;32.260;2022-09-01T17:26:00;10.07;;;2.53;;
45318;SDS011;31057;48.498;32.260;2022-09-01T17:28:48;6.70;;;2.58;;
45318;SDS011;31057;48.498;32.260;2022-09-01T17:35:57;3.05;;;2.00;;
45318;SDS011;31057;48.498;32.260;2022-09-01T17:42:30;4.85;;;2.60;;
45318;SDS011;31057;48.498;32.260;2022-09-01T17:46:26;6.15;;;2.00;;
45318;SDS011;31057;48.498;32.260;2022-09-01T17:56:24;10.18;;;3.15;;
45318;SDS011;31057;48.498;32.260;2022-09-01T18:02:44;9.38;;;2.65;;
45318;SDS011;31057;48.498;32.260;2022-09-01T18:06:04;4.82;;;2.60;;
45318;SDS011;31057;48.498;32.260;2022-09-01T18:09:11;4.38;;;2.35;;
45318;SDS011;31057;48.498;32.260;2022-09-01T18:12:18;10.07;;;2.85;;
45318;SDS011;31057;48.498;32.260;2022-09-01T18:15:28;8.68;;;3.55;;
45318;SDS011;31057;48.498;32.260;2022-09-01T18:18:41;12.35;;;5.18;;
45318;SDS011;31057;48.498;32.260;2022-09-01T18:21:49;9.55;;;4.20;;
45318;SDS011;31057;48.498;32.260;2022-09-01T18:24:56;12.18;;;5.32;;
45318;SDS011;31057;48.498;32.260;2022-09-01T18:28:04;9.38;;;4.75;;
45318;SDS011;31057;48.498;32.260;2022-09-01T18:43:56;12.32;;;4.82;;
45318;SDS011;31057;48.498;32.260;2022-09-01T18:47:22;9.63;;;3.50;;
45318;SDS011;31057;48.498;32.260;2022-09-01T18:57:19;6.95;;;4.10;;
45318;SDS011;31057;48.498;32.260;2022-09-01T19:00:25;9.73;;;4.50;;
45318;SDS011;31057;48.498;32.260;2022-09-01T19:03:42;9.70;;;4.35;;
45318;SDS011;31057;48.498;32.260;2022-09-01T19:06:59;6.90;;;4.32;;
45318;SDS011;31057;48.498;32.260;2022-09-01T19:10:28;15.90;;;4.18;;
45318;SDS011;31057;48.498;32.260;2022-09-01T19:24:37;14.45;;;4.38;;
45318;SDS011;31057;48.498;32.260;2022-09-01T19:27:48;10.60;;;4.47;;
45318;SDS011;31057;48.498;32.260;2022-09-01T19:34:19;9.68;;;4.45;;
45318;SDS011;31057;48.498;32.260;2022-09-01T19:37:26;11.13;;;4.13;;
45318;SDS011;31057;48.498;32.260;2022-09-01T19:40:29;11.48;;;3.88;;
45318;SDS011;31057;48.498;32.260;2022-09-01T19:43:39;6.22;;;4.13;;
45318;SDS011;31057;48.498;32.260;2022-09-01T19:46:44;11.10;;;6.00;;
45318;SDS011;31057;48.498;32.260;2022-09-01T19:50:12;12.63;;;5.00;;
45318;SDS011;31057;48.498;32.260;2022-09-01T19:56:42;10.20;;;3.80;;
45318;SDS011;31057;48.498;32.260;2022-09-01T20:00:08;10.65;;;3.80;;
45318;SDS011;31057;48.498;32.260;2022-09-01T20:03:31;6.93;;;4.30;;
45318;SDS011;31057;48.498;32.260;2022-09-01T20:06:35;11.75;;;3.83;;
45318;SDS011;31057;48.498;32.260;2022-09-01T20:09:44;6.85;;;3.40;;
45318;SDS011;31057;48.498;32.260;2022-09-01T20:16:49;8.15;;;4.07;;
45318;SDS011;31057;48.498;32.260;2022-09-01T20:26:20;7.80;;;3.78;;
45318;SDS011;31057;48.498;32.260;2022-09-01T20:43:14;11.20;;;4.25;;
45318;SDS011;31057;48.498;32.260;2022-09-01T20:46:27;9.80;;;3.70;;
45318;SDS011;31057;48.498;32.260;2022-09-01T20:49:30;11.95;;;4.00;;
45318;SDS011;31057;48.498;32.260;2022-09-01T20:52:40;11.75;;;4.90;;
45318;SDS011;31057;48.498;32.260;2022-09-01T20:55:56;10.00;;;4.18;;
45318;SDS011;31057;48.498;32.260;2022-09-01T21:03:36;6.80;;;3.80;;
45318;SDS011;31057;48.498;32.260;2022-09-01T21:14:17;9.00;;;4.00;;
45318;SDS011;31057;48.498;32.260;2022-09-01T21:24:29;8.10;;;4.05;;
45318;SDS011;31057;48.498;32.260;2022-09-01T21:27:33;13.88;;;4.13;;
45318;SDS011;31057;48.498;32.260;2022-09-01T21:30:51;6.50;;;3.78;;
45318;SDS011;31057;48.498;32.260;2022-09-01T21:33:55;9.07;;;3.78;;